N7AP88 KCMH-CYYZ
Flight info
| Callsign | N7AP88 |
|---|---|
| Flight time | 0h 52m |
| Altitude | 45000 |
| Route | RDBUV DCT NOWZU DCT JUSEP DCT DJB DCT QWERI NUBER6 |
| Aircraft | C25C/M-SDE2E3FGHRWXY/LB1 |
Departure
| Time | 2026-05-07 23:07 |
|---|---|
| Airport | John Glenn Columbus International Airport (KCMH) |
Arrival
| Time | 2026-05-08 00:00 |
|---|---|
| Airport | Toronto Pearson International Airport (CYYZ) |
| Time | Latitude | Longitude | Altitude | Speed | Heading |
|---|---|---|---|---|---|
| 2026-05-07 21:28 | 39.99627 | -82.89095 | 817 ft | 0 kts | 184° |
| 2026-05-07 23:02 | 39.99619 | -82.89115 | 817 ft | 3 kts | 271° |
| 2026-05-07 23:02 | 39.99622 | -82.89150 | 817 ft | 5 kts | 272° |
| 2026-05-07 23:02 | 39.99602 | -82.89173 | 817 ft | 5 kts | 187° |
| 2026-05-07 23:02 | 39.99549 | -82.89176 | 817 ft | 11 kts | 181° |
| 2026-05-07 23:03 | 39.99458 | -82.89165 | 816 ft | 10 kts | 142° |
| 2026-05-07 23:03 | 39.99439 | -82.89076 | 815 ft | 14 kts | 93° |
| 2026-05-07 23:03 | 39.99432 | -82.88944 | 815 ft | 15 kts | 94° |
| 2026-05-07 23:03 | 39.99423 | -82.88803 | 814 ft | 16 kts | 94° |
| 2026-05-07 23:04 | 39.99415 | -82.88649 | 812 ft | 18 kts | 94° |
| 2026-05-07 23:04 | 39.99406 | -82.88487 | 813 ft | 18 kts | 94° |
| 2026-05-07 23:04 | 39.99397 | -82.88329 | 813 ft | 17 kts | 93° |
| 2026-05-07 23:04 | 39.99387 | -82.88170 | 810 ft | 18 kts | 94° |
| 2026-05-07 23:05 | 39.99378 | -82.88014 | 815 ft | 17 kts | 94° |
| 2026-05-07 23:05 | 39.99370 | -82.87860 | 815 ft | 17 kts | 94° |
| 2026-05-07 23:05 | 39.99361 | -82.87718 | 816 ft | 14 kts | 94° |
| 2026-05-07 23:05 | 39.99354 | -82.87593 | 816 ft | 14 kts | 94° |
| 2026-05-07 23:06 | 39.99338 | -82.87453 | 811 ft | 17 kts | 118° |
| 2026-05-07 23:06 | 39.99259 | -82.87343 | 812 ft | 14 kts | 147° |
| 2026-05-07 23:06 | 39.99177 | -82.87341 | 813 ft | 9 kts | 211° |
| 2026-05-07 23:06 | 39.99173 | -82.87503 | 812 ft | 58 kts | 275° |
| 2026-05-07 23:07 | 39.99242 | -82.88521 | 926 ft | 153 kts | 281° |
| 2026-05-07 23:07 | 39.99350 | -82.90053 | 1723 ft | 178 kts | 282° |
| 2026-05-07 23:07 | 39.99788 | -82.91498 | 2514 ft | 168 kts | 304° |
| 2026-05-07 23:07 | 40.00455 | -82.92755 | 3087 ft | 171 kts | 306° |
| 2026-05-07 23:08 | 40.01282 | -82.94094 | 3386 ft | 199 kts | 311° |
| 2026-05-07 23:08 | 40.02307 | -82.95383 | 3895 ft | 215 kts | 319° |
| 2026-05-07 23:08 | 40.03818 | -82.96029 | 4001 ft | 244 kts | 0° |
| 2026-05-07 23:08 | 40.05386 | -82.95548 | 4315 ft | 231 kts | 19° |
| 2026-05-07 23:09 | 40.06829 | -82.94528 | 4633 ft | 241 kts | 25° |
| 2026-05-07 23:09 | 40.08326 | -82.93465 | 4973 ft | 250 kts | 24° |
| 2026-05-07 23:09 | 40.09849 | -82.92418 | 5301 ft | 243 kts | 23° |
| 2026-05-07 23:09 | 40.11346 | -82.91438 | 5643 ft | 238 kts | 22° |
| 2026-05-07 23:10 | 40.12801 | -82.90458 | 6019 ft | 232 kts | 22° |
| 2026-05-07 23:10 | 40.14226 | -82.89513 | 6394 ft | 229 kts | 22° |
| 2026-05-07 23:10 | 40.15678 | -82.88535 | 6765 ft | 241 kts | 22° |
| 2026-05-07 23:10 | 40.17191 | -82.87524 | 7251 ft | 247 kts | 22° |
| 2026-05-07 23:11 | 40.18730 | -82.86485 | 7768 ft | 251 kts | 22° |
| 2026-05-07 23:11 | 40.20299 | -82.85435 | 8289 ft | 255 kts | 22° |
| 2026-05-07 23:11 | 40.21865 | -82.84377 | 8809 ft | 258 kts | 22° |
| 2026-05-07 23:11 | 40.23471 | -82.83301 | 9349 ft | 261 kts | 22° |
| 2026-05-07 23:12 | 40.25090 | -82.82209 | 9894 ft | 263 kts | 21° |
| 2026-05-07 23:12 | 40.26723 | -82.81112 | 10403 ft | 265 kts | 21° |
| 2026-05-07 23:12 | 40.28363 | -82.80003 | 10906 ft | 266 kts | 20° |
| 2026-05-07 23:12 | 40.30013 | -82.78892 | 11411 ft | 267 kts | 20° |
| 2026-05-07 23:13 | 40.31665 | -82.77779 | 11926 ft | 267 kts | 19° |
| 2026-05-07 23:13 | 40.33314 | -82.76662 | 12449 ft | 267 kts | 19° |
| 2026-05-07 23:13 | 40.34966 | -82.75552 | 12904 ft | 269 kts | 18° |
| 2026-05-07 23:13 | 40.36678 | -82.74401 | 12994 ft | 284 kts | 19° |
| 2026-05-07 23:14 | 40.38483 | -82.73190 | 13009 ft | 298 kts | 19° |
| 2026-05-07 23:14 | 40.40368 | -82.71915 | 13007 ft | 309 kts | 18° |
| 2026-05-07 23:14 | 40.42355 | -82.70900 | 13008 ft | 314 kts | 13° |
| 2026-05-07 23:14 | 40.44408 | -82.69791 | 13003 ft | 324 kts | 16° |
| 2026-05-07 23:15 | 40.46502 | -82.68644 | 13004 ft | 328 kts | 15° |
| 2026-05-07 23:15 | 40.48635 | -82.67514 | 13002 ft | 333 kts | 15° |
| 2026-05-07 23:15 | 40.50792 | -82.66372 | 13001 ft | 336 kts | 15° |
| 2026-05-07 23:15 | 40.52968 | -82.65223 | 13001 ft | 339 kts | 15° |
| 2026-05-07 23:16 | 40.55153 | -82.64042 | 13106 ft | 337 kts | 15° |
| 2026-05-07 23:16 | 40.57263 | -82.62757 | 13510 ft | 331 kts | 18° |
| 2026-05-07 23:16 | 40.59353 | -82.61547 | 13907 ft | 333 kts | 15° |
| 2026-05-07 23:16 | 40.61554 | -82.60302 | 14269 ft | 356 kts | 17° |
| 2026-05-07 23:17 | 40.63836 | -82.58934 | 14770 ft | 366 kts | 17° |
| 2026-05-07 23:17 | 40.66189 | -82.57524 | 15365 ft | 376 kts | 17° |
| 2026-05-07 23:17 | 40.68593 | -82.56089 | 16049 ft | 383 kts | 16° |
| 2026-05-07 23:17 | 40.71042 | -82.54647 | 16752 ft | 388 kts | 16° |
| 2026-05-07 23:18 | 40.73481 | -82.53195 | 17547 ft | 391 kts | 16° |
| 2026-05-07 23:18 | 40.75975 | -82.51712 | 18368 ft | 395 kts | 16° |
| 2026-05-07 23:18 | 40.78495 | -82.50208 | 19083 ft | 399 kts | 15° |
| 2026-05-07 23:18 | 40.81048 | -82.48694 | 19820 ft | 405 kts | 15° |
| 2026-05-07 23:19 | 40.83629 | -82.47152 | 20569 ft | 410 kts | 14° |
| 2026-05-07 23:19 | 40.86248 | -82.45593 | 21339 ft | 415 kts | 14° |
| 2026-05-07 23:19 | 40.88891 | -82.44025 | 22169 ft | 418 kts | 12° |
| 2026-05-07 23:19 | 40.91560 | -82.42473 | 22983 ft | 421 kts | 12° |
| 2026-05-07 23:20 | 40.94243 | -82.40889 | 23772 ft | 423 kts | 12° |
| 2026-05-07 23:20 | 40.96938 | -82.39297 | 24451 ft | 425 kts | 12° |
| 2026-05-07 23:20 | 40.99637 | -82.37694 | 25151 ft | 425 kts | 11° |
| 2026-05-07 23:20 | 41.02302 | -82.36125 | 25861 ft | 425 kts | 11° |
| 2026-05-07 23:21 | 41.05009 | -82.34524 | 26485 ft | 427 kts | 11° |
| 2026-05-07 23:21 | 41.07730 | -82.32917 | 27110 ft | 430 kts | 11° |
| 2026-05-07 23:21 | 41.10462 | -82.31290 | 27824 ft | 430 kts | 10° |
| 2026-05-07 23:21 | 41.13199 | -82.29669 | 28480 ft | 431 kts | 10° |
| 2026-05-07 23:22 | 41.15932 | -82.28042 | 29148 ft | 431 kts | 9° |
| 2026-05-07 23:22 | 41.18668 | -82.26421 | 29831 ft | 431 kts | 9° |
| 2026-05-07 23:22 | 41.21402 | -82.24792 | 30445 ft | 430 kts | 9° |
| 2026-05-07 23:22 | 41.24133 | -82.23165 | 31034 ft | 430 kts | 9° |
| 2026-05-07 23:23 | 41.26858 | -82.21541 | 31612 ft | 429 kts | 9° |
| 2026-05-07 23:23 | 41.29547 | -82.19939 | 32098 ft | 430 kts | 9° |
| 2026-05-07 23:23 | 41.32338 | -82.18515 | 32646 ft | 417 kts | 2° |
| 2026-05-07 23:23 | 41.35067 | -82.17521 | 33150 ft | 406 kts | 356° |
| 2026-05-07 23:24 | 41.37813 | -82.16903 | 33677 ft | 395 kts | 351° |
| 2026-05-07 23:24 | 41.40505 | -82.16646 | 34168 ft | 383 kts | 345° |
| 2026-05-07 23:24 | 41.43127 | -82.16715 | 34554 ft | 373 kts | 340° |
| 2026-05-07 23:24 | 41.45728 | -82.16919 | 34894 ft | 376 kts | 341° |
| 2026-05-07 23:25 | 41.48379 | -82.17114 | 34931 ft | 387 kts | 341° |
| 2026-05-07 23:25 | 41.51106 | -82.17306 | 34997 ft | 398 kts | 342° |
| 2026-05-07 23:25 | 41.53902 | -82.17507 | 34990 ft | 407 kts | 343° |
| 2026-05-07 23:26 | 41.59607 | -82.17895 | 34980 ft | 404 kts | 343° |
| 2026-05-07 23:26 | 41.65054 | -82.18286 | 34964 ft | 390 kts | 342° |
| 2026-05-07 23:27 | 41.73177 | -82.18913 | 34978 ft | 385 kts | 340° |
| 2026-05-07 23:27 | 41.75787 | -82.19448 | 34967 ft | 374 kts | 334° |
| 2026-05-07 23:27 | 41.78372 | -82.20047 | 34953 ft | 384 kts | 340° |
| 2026-05-07 23:28 | 41.83830 | -82.20013 | 34950 ft | 402 kts | 352° |
| 2026-05-07 23:28 | 41.89349 | -82.19344 | 34945 ft | 404 kts | 353° |
| 2026-05-07 23:29 | 41.94930 | -82.18292 | 34961 ft | 405 kts | 355° |
| 2026-05-07 23:29 | 42.00514 | -82.17394 | 34959 ft | 404 kts | 354° |
| 2026-05-07 23:30 | 42.06097 | -82.16439 | 34951 ft | 404 kts | 355° |
| 2026-05-07 23:30 | 42.11674 | -82.15500 | 34946 ft | 404 kts | 354° |
| 2026-05-07 23:31 | 42.17258 | -82.14556 | 34949 ft | 405 kts | 355° |
| 2026-05-07 23:31 | 42.22840 | -82.13608 | 34942 ft | 404 kts | 355° |
| 2026-05-07 23:32 | 42.28381 | -82.12670 | 34891 ft | 405 kts | 355° |
| 2026-05-07 23:32 | 42.31200 | -82.12196 | 34637 ft | 412 kts | 355° |
| 2026-05-07 23:32 | 42.34066 | -82.11713 | 34372 ft | 418 kts | 356° |
| 2026-05-07 23:33 | 42.36977 | -82.11212 | 34156 ft | 424 kts | 357° |
| 2026-05-07 23:33 | 42.39916 | -82.10708 | 33893 ft | 428 kts | 357° |
| 2026-05-07 23:33 | 42.42882 | -82.10199 | 33592 ft | 431 kts | 357° |
| 2026-05-07 23:33 | 42.45864 | -82.09695 | 33292 ft | 434 kts | 357° |
| 2026-05-07 23:34 | 42.48854 | -82.09177 | 32995 ft | 432 kts | 357° |
| 2026-05-07 23:34 | 42.51829 | -82.08668 | 32696 ft | 430 kts | 357° |
| 2026-05-07 23:34 | 42.54791 | -82.08159 | 32359 ft | 429 kts | 357° |
| 2026-05-07 23:34 | 42.57757 | -82.07658 | 31948 ft | 430 kts | 357° |
| 2026-05-07 23:35 | 42.60728 | -82.07144 | 31538 ft | 431 kts | 357° |
| 2026-05-07 23:35 | 42.63703 | -82.06636 | 31138 ft | 431 kts | 357° |
| 2026-05-07 23:35 | 42.66663 | -82.06113 | 30986 ft | 426 kts | 358° |
| 2026-05-07 23:35 | 42.69570 | -82.05307 | 30946 ft | 427 kts | 5° |
| 2026-05-07 23:36 | 42.75134 | -82.02485 | 30964 ft | 429 kts | 17° |
| 2026-05-07 23:36 | 42.80165 | -81.98087 | 30934 ft | 432 kts | 31° |
| 2026-05-07 23:37 | 42.84429 | -81.92302 | 30940 ft | 435 kts | 44° |
| 2026-05-07 23:37 | 42.87714 | -81.85413 | 30938 ft | 438 kts | 56° |
| 2026-05-07 23:38 | 42.89221 | -81.81743 | 30758 ft | 440 kts | 55° |
| 2026-05-07 23:38 | 42.90724 | -81.78127 | 30366 ft | 448 kts | 55° |
| 2026-05-07 23:38 | 42.92269 | -81.74390 | 29970 ft | 455 kts | 56° |
| 2026-05-07 23:38 | 42.93816 | -81.70591 | 29535 ft | 460 kts | 56° |
| 2026-05-07 23:39 | 42.95378 | -81.66776 | 29071 ft | 462 kts | 56° |
| 2026-05-07 23:39 | 42.96948 | -81.62940 | 28621 ft | 463 kts | 57° |
| 2026-05-07 23:39 | 42.98527 | -81.59096 | 28164 ft | 464 kts | 57° |
| 2026-05-07 23:39 | 43.00095 | -81.55240 | 27706 ft | 465 kts | 57° |
| 2026-05-07 23:40 | 43.01668 | -81.51390 | 27256 ft | 464 kts | 57° |
| 2026-05-07 23:40 | 43.03232 | -81.47538 | 26814 ft | 463 kts | 57° |
| 2026-05-07 23:40 | 43.04797 | -81.43702 | 26380 ft | 461 kts | 57° |
| 2026-05-07 23:40 | 43.06327 | -81.39924 | 25967 ft | 459 kts | 57° |
| 2026-05-07 23:41 | 43.07871 | -81.36115 | 25558 ft | 457 kts | 57° |
| 2026-05-07 23:41 | 43.09330 | -81.32344 | 25156 ft | 435 kts | 59° |
| 2026-05-07 23:41 | 43.10696 | -81.28787 | 24774 ft | 410 kts | 58° |
| 2026-05-07 23:41 | 43.12015 | -81.25429 | 24309 ft | 392 kts | 58° |
| 2026-05-07 23:42 | 43.13288 | -81.22204 | 23825 ft | 379 kts | 58° |
| 2026-05-07 23:42 | 43.14512 | -81.19074 | 23308 ft | 368 kts | 59° |
| 2026-05-07 23:42 | 43.15696 | -81.16018 | 22718 ft | 359 kts | 58° |
| 2026-05-07 23:42 | 43.16859 | -81.13039 | 22150 ft | 351 kts | 58° |
| 2026-05-07 23:43 | 43.17998 | -81.10110 | 21589 ft | 345 kts | 58° |
| 2026-05-07 23:43 | 43.19104 | -81.07272 | 21052 ft | 340 kts | 58° |
| 2026-05-07 23:43 | 43.20207 | -81.04425 | 20517 ft | 336 kts | 58° |
| 2026-05-07 23:43 | 43.21299 | -81.01613 | 19995 ft | 333 kts | 58° |
| 2026-05-07 23:44 | 43.22377 | -80.98828 | 19485 ft | 329 kts | 58° |
| 2026-05-07 23:44 | 43.23448 | -80.96064 | 18980 ft | 327 kts | 58° |
| 2026-05-07 23:44 | 43.24507 | -80.93322 | 18498 ft | 324 kts | 58° |
| 2026-05-07 23:44 | 43.25555 | -80.90611 | 18063 ft | 320 kts | 58° |
| 2026-05-07 23:45 | 43.26590 | -80.87931 | 17580 ft | 316 kts | 58° |
| 2026-05-07 23:45 | 43.27613 | -80.85277 | 17121 ft | 314 kts | 59° |
| 2026-05-07 23:45 | 43.28630 | -80.82640 | 16656 ft | 311 kts | 59° |
| 2026-05-07 23:45 | 43.29621 | -80.80060 | 16209 ft | 309 kts | 59° |
| 2026-05-07 23:46 | 43.30624 | -80.77460 | 15762 ft | 307 kts | 59° |
| 2026-05-07 23:46 | 43.31615 | -80.74873 | 15326 ft | 305 kts | 59° |
| 2026-05-07 23:46 | 43.32605 | -80.72302 | 14909 ft | 304 kts | 59° |
| 2026-05-07 23:46 | 43.33584 | -80.69738 | 14484 ft | 302 kts | 59° |
| 2026-05-07 23:47 | 43.34565 | -80.67192 | 14074 ft | 301 kts | 59° |
| 2026-05-07 23:47 | 43.35533 | -80.64649 | 13664 ft | 300 kts | 59° |
| 2026-05-07 23:47 | 43.36507 | -80.62117 | 13198 ft | 299 kts | 59° |
| 2026-05-07 23:47 | 43.37468 | -80.59588 | 12757 ft | 298 kts | 59° |
| 2026-05-07 23:48 | 43.38433 | -80.57074 | 12330 ft | 297 kts | 59° |
| 2026-05-07 23:48 | 43.39373 | -80.54593 | 11911 ft | 296 kts | 59° |
| 2026-05-07 23:48 | 43.40332 | -80.52096 | 11504 ft | 295 kts | 60° |
| 2026-05-07 23:48 | 43.41278 | -80.49593 | 11095 ft | 294 kts | 60° |
| 2026-05-07 23:49 | 43.42227 | -80.47118 | 10786 ft | 291 kts | 60° |
| 2026-05-07 23:49 | 43.43153 | -80.44661 | 10494 ft | 288 kts | 60° |
| 2026-05-07 23:49 | 43.44082 | -80.42234 | 10184 ft | 286 kts | 60° |
| 2026-05-07 23:49 | 43.44994 | -80.39812 | 9882 ft | 284 kts | 60° |
| 2026-05-07 23:50 | 43.45889 | -80.37393 | 9557 ft | 284 kts | 65° |
| 2026-05-07 23:50 | 43.46556 | -80.34844 | 9226 ft | 282 kts | 68° |
| 2026-05-07 23:50 | 43.47291 | -80.32345 | 8897 ft | 281 kts | 66° |
| 2026-05-07 23:50 | 43.47995 | -80.29842 | 8582 ft | 280 kts | 68° |
| 2026-05-07 23:51 | 43.48485 | -80.27259 | 8256 ft | 279 kts | 83° |
| 2026-05-07 23:51 | 43.48808 | -80.24632 | 7942 ft | 278 kts | 76° |
| 2026-05-07 23:51 | 43.49231 | -80.22047 | 7630 ft | 275 kts | 78° |
| 2026-05-07 23:51 | 43.49552 | -80.19513 | 7325 ft | 271 kts | 79° |
| 2026-05-07 23:52 | 43.49887 | -80.16980 | 7017 ft | 267 kts | 79° |
| 2026-05-07 23:52 | 43.50211 | -80.14488 | 6710 ft | 262 kts | 78° |
| 2026-05-07 23:52 | 43.50544 | -80.12038 | 6408 ft | 258 kts | 79° |
| 2026-05-07 23:52 | 43.50861 | -80.09623 | 6091 ft | 255 kts | 78° |
| 2026-05-07 23:53 | 43.51182 | -80.07233 | 5768 ft | 253 kts | 79° |
| 2026-05-07 23:53 | 43.51493 | -80.04858 | 5450 ft | 251 kts | 78° |
| 2026-05-07 23:53 | 43.51806 | -80.02506 | 5135 ft | 249 kts | 79° |
| 2026-05-07 23:53 | 43.52113 | -80.00165 | 4825 ft | 248 kts | 78° |
| 2026-05-07 23:54 | 43.52321 | -79.98621 | 4619 ft | 247 kts | 78° |
| 2026-05-07 23:54 | 43.52722 | -79.95546 | 4200 ft | 246 kts | 78° |
| 2026-05-07 23:54 | 43.53026 | -79.93264 | 4066 ft | 237 kts | 78° |
| 2026-05-07 23:54 | 43.53323 | -79.91071 | 4021 ft | 230 kts | 77° |
| 2026-05-07 23:55 | 43.53614 | -79.88937 | 4006 ft | 224 kts | 78° |
| 2026-05-07 23:55 | 43.53901 | -79.86887 | 4023 ft | 211 kts | 77° |
| 2026-05-07 23:55 | 43.54087 | -79.85587 | 4019 ft | 208 kts | 77° |
| 2026-05-07 23:55 | 43.54372 | -79.83590 | 4020 ft | 218 kts | 77° |
| 2026-05-07 23:56 | 43.54681 | -79.81503 | 4023 ft | 222 kts | 77° |
| 2026-05-07 23:56 | 43.54992 | -79.79446 | 4021 ft | 217 kts | 77° |
| 2026-05-07 23:56 | 43.55322 | -79.77445 | 4031 ft | 211 kts | 73° |
| 2026-05-07 23:56 | 43.55925 | -79.75618 | 3850 ft | 213 kts | 52° |
| 2026-05-07 23:57 | 43.57039 | -79.74168 | 3388 ft | 224 kts | 36° |
| 2026-05-07 23:57 | 43.58311 | -79.72916 | 3002 ft | 227 kts | 32° |
| 2026-05-07 23:57 | 43.59608 | -79.71681 | 2666 ft | 224 kts | 34° |
| 2026-05-07 23:57 | 43.60780 | -79.70304 | 2369 ft | 220 kts | 43° |
| 2026-05-07 23:58 | 43.61809 | -79.68772 | 2146 ft | 215 kts | 49° |
| 2026-05-07 23:58 | 43.62757 | -79.67200 | 1753 ft | 219 kts | 45° |
| 2026-05-07 23:58 | 43.63771 | -79.65756 | 1270 ft | 193 kts | 45° |
| 2026-05-07 23:58 | 43.64596 | -79.64525 | 1033 ft | 160 kts | 45° |
| 2026-05-07 23:59 | 43.65271 | -79.63585 | 832 ft | 122 kts | 44° |
| 2026-05-07 23:59 | 43.65794 | -79.62801 | 669 ft | 101 kts | 45° |
| 2026-05-07 23:59 | 43.66268 | -79.62109 | 567 ft | 96 kts | 46° |
| 2026-05-07 23:59 | 43.66672 | -79.61523 | 560 ft | 70 kts | 46° |
| 2026-05-08 00:00 | 43.66910 | -79.61176 | 564 ft | 30 kts | 43° |
| 2026-05-08 00:00 | 43.67016 | -79.61082 | 568 ft | 11 kts | 21° |
| 2026-05-08 00:00 | 43.67089 | -79.61056 | 563 ft | 10 kts | 7° |
| 2026-05-08 00:00 | 43.67099 | -79.61055 | 563 ft | 1 kts | 4° |
| 2026-05-08 00:01 | 43.67107 | -79.61054 | 562 ft | 2 kts | 359° |
| 2026-05-08 00:01 | 43.67144 | -79.61093 | 558 ft | 8 kts | 307° |
| 2026-05-08 00:01 | 43.67142 | -79.61160 | 557 ft | 7 kts | 232° |
| 2026-05-08 00:01 | 43.67104 | -79.61220 | 556 ft | 10 kts | 226° |
| 2026-05-08 00:02 | 43.67051 | -79.61297 | 555 ft | 12 kts | 226° |
| 2026-05-08 00:02 | 43.66993 | -79.61381 | 556 ft | 12 kts | 225° |
| 2026-05-08 00:02 | 43.66935 | -79.61466 | 555 ft | 11 kts | 226° |
| 2026-05-08 00:02 | 43.66921 | -79.61564 | 552 ft | 12 kts | 311° |
| 2026-05-08 00:03 | 43.66986 | -79.61642 | 551 ft | 13 kts | 316° |
| 2026-05-08 00:03 | 43.67054 | -79.61733 | 550 ft | 14 kts | 317° |
| 2026-05-08 00:03 | 43.67119 | -79.61818 | 555 ft | 12 kts | 317° |
| 2026-05-08 00:03 | 43.67197 | -79.61918 | 554 ft | 17 kts | 317° |
| 2026-05-08 00:04 | 43.67278 | -79.62024 | 556 ft | 15 kts | 316° |
| 2026-05-08 00:04 | 43.67354 | -79.62123 | 559 ft | 16 kts | 316° |
| 2026-05-08 00:04 | 43.67409 | -79.62200 | 558 ft | 9 kts | 318° |
| 2026-05-08 00:04 | 43.67466 | -79.62271 | 558 ft | 12 kts | 315° |
| 2026-05-08 00:05 | 43.67517 | -79.62357 | 562 ft | 12 kts | 273° |
| 2026-05-08 00:05 | 43.67486 | -79.62435 | 559 ft | 10 kts | 228° |
| 2026-05-08 00:05 | 43.67436 | -79.62529 | 563 ft | 13 kts | 262° |
| 2026-05-08 00:05 | 43.67484 | -79.62619 | 557 ft | 12 kts | 315° |
| 2026-05-08 00:06 | 43.67478 | -79.62679 | 561 ft | 0 kts | 224° |